Air Quality Table

TIMESTAMP NO2 SO2 PM10 PM2.5 TEMP HUM AIRPRES WS WD NO
2022-11-26 09:00 32.59 µg/m3 0.6 µg/m3 19.32 µg/m3 9.07 µg/m3 18.13 °C 87.86 % 1,011.76 mbar 3.1 m/s 200.8 Deg 17.71 µg/m3
2022-11-26 08:00 34.56 µg/m3 0.52 µg/m3 20.42 µg/m3 8.93 µg/m3 19.17 °C 81.69 % 1,011.99 mbar 2.06 m/s 182.73 Deg 7.55 µg/m3
2022-11-26 07:00 33.64 µg/m3 0.41 µg/m3 17.2 µg/m3 7.5 µg/m3 18.87 °C 80.53 % 1,013.12 mbar 2.93 m/s 184.5 Deg 15.25 µg/m3
2022-11-26 06:00 34.6 µg/m3 0.21 µg/m3 17.43 µg/m3 7.6 µg/m3 18.34 °C 81.11 % 1,013.17 mbar 1.92 m/s 182.53 Deg 8.52 µg/m3
2022-11-26 05:00 31.32 µg/m3 -0.06 µg/m3 17.69 µg/m3 7.58 µg/m3 17.76 °C 79.73 % 1,014.06 mbar 0.53 m/s 179.27 Deg 2.39 µg/m3
2022-11-26 04:00 37.13 µg/m3 0.84 µg/m3 17.18 µg/m3 7.41 µg/m3 17.62 °C 78.89 % 1,015.03 mbar 1.13 m/s 170.63 Deg 4.56 µg/m3
2022-11-26 03:00 43.21 µg/m3 2.37 µg/m3 30.08 µg/m3 14.08 µg/m3 16.41 °C 83.7 % 1,016.17 mbar 1.82 m/s 202.99 Deg 20.21 µg/m3
2022-11-26 02:00 45.85 µg/m3 2.72 µg/m3 39.9 µg/m3 19.3 µg/m3 15.64 °C 85.04 % 1,016.48 mbar 1.67 m/s 213.63 Deg 30.31 µg/m3
2022-11-26 01:00 52.86 µg/m3 2.69 µg/m3 47.7 µg/m3 23.23 µg/m3 15.64 °C 83.88 % 1,016.78 mbar 1.38 m/s 205.77 Deg 34.89 µg/m3
2022-11-26 00:00 50.12 µg/m3 2.79 µg/m3 46.65 µg/m3 22.73 µg/m3 15.39 °C 84.42 % 1,017.46 mbar 2.09 m/s 208.78 Deg 45.42 µg/m3
2022-11-25 23:00 58.14 µg/m3 2.6 µg/m3 49.4 µg/m3 23.95 µg/m3 15.63 °C 84.46 % 1,017.93 mbar 1.61 m/s 209.63 Deg 64.92 µg/m3
2022-11-25 22:00 62.36 µg/m3 2.8 µg/m3 49.95 µg/m3 24.21 µg/m3 15.95 °C 82.93 % 1,018.36 mbar 1.08 m/s 209.95 Deg 48.9 µg/m3
2022-11-25 21:00 63.67 µg/m3 1.98 µg/m3 53.45 µg/m3 25.97 µg/m3 15.92 °C 81.51 % 1,018.57 mbar 2.11 m/s 210.49 Deg 35.47 µg/m3
2022-11-25 20:00 71.33 µg/m3 2.8 µg/m3 44.42 µg/m3 19.52 µg/m3 16.67 °C 77.05 % 1,018.24 mbar 2.04 m/s 212.94 Deg 38.86 µg/m3
2022-11-25 19:00 63.75 µg/m3 1.07 µg/m3 44.29 µg/m3 13.57 µg/m3 17.61 °C 71.63 % 1,018.11 mbar 1.14 m/s 253.13 Deg 16.99 µg/m3
2022-11-25 18:00 38.78 µg/m3 0.24 µg/m3 28.46 µg/m3 8.58 µg/m3 18 °C 68.3 % 1,018.13 mbar 1.14 m/s 285.01 Deg 7.39 µg/m3
2022-11-25 17:00 14.41 µg/m3 0.33 µg/m3 25.59 µg/m3 7.73 µg/m3 18.61 °C 64.98 % 1,017.94 mbar 1.16 m/s 305.62 Deg 4.53 µg/m3
2022-11-25 16:00 7.88 µg/m3 0.15 µg/m3 26.02 µg/m3 7.65 µg/m3 19.22 °C 62.31 % 1,017.99 mbar 1.34 m/s 322.61 Deg 3.57 µg/m3
2022-11-25 15:00 11.06 µg/m3 0.7 µg/m3 24.54 µg/m3 7.39 µg/m3 19.44 °C 61.29 % 1,017.73 mbar 1.29 m/s 344.6 Deg 21.43 µg/m3
2022-11-25 14:00 6.38 µg/m3 0.39 µg/m3 28.67 µg/m3 7.76 µg/m3 19.58 °C 59.94 % 1,018.28 mbar 1.52 m/s 332.72 Deg 3.12 µg/m3
2022-11-25 13:00 6.25 µg/m3 0.63 µg/m3 25.71 µg/m3 7.77 µg/m3 19.32 °C 60.79 % 1,018.74 mbar 1.33 m/s 344.83 Deg 2.7 µg/m3
2022-11-25 12:00 5.74 µg/m3 0.56 µg/m3 23.69 µg/m3 7.45 µg/m3 18.81 °C 61.94 % 1,019.00 mbar 2.05 m/s 305.33 Deg 3.11 µg/m3
2022-11-25 11:00 14.25 µg/m3 0.61 µg/m3 28.94 µg/m3 8.12 µg/m3 18.57 °C 65.39 % 1,019.35 mbar 1.63 m/s 297.43 Deg 7.34 µg/m3
2022-11-25 10:00 23.93 µg/m3 0.97 µg/m3 34.51 µg/m3 9.98 µg/m3 17.86 °C 69.58 % 1,019.38 mbar 2.15 m/s 264.83 Deg 7.8 µg/m3
2022-11-25 09:00 63.32 µg/m3 2.21 µg/m3 40.88 µg/m3 13.99 µg/m3 16.85 °C 74.8 % 1,019.00 mbar 2.07 m/s 223.83 Deg 50.8 µg/m3
2022-11-25 08:00 70.86 µg/m3 2.7 µg/m3 32.31 µg/m3 14.91 µg/m3 15.87 °C 78.96 % 1,018.59 mbar 1.82 m/s 208.48 Deg 77.93 µg/m3
2022-11-25 07:00 63.57 µg/m3 2.65 µg/m3 24.48 µg/m3 11.01 µg/m3 16.28 °C 78.88 % 1,017.98 mbar 2.16 m/s 225.46 Deg 38.89 µg/m3
2022-11-25 06:00 40.2 µg/m3 0.52 µg/m3 23.45 µg/m3 9.51 µg/m3 16.75 °C 76.86 % 1,017.46 mbar 1.9 m/s 261.11 Deg 13.72 µg/m3
2022-11-25 05:00 26.08 µg/m3 0.27 µg/m3 21.64 µg/m3 9.25 µg/m3 16.53 °C 81.11 % 1,017.28 mbar 1.54 m/s 223.75 Deg 2.48 µg/m3
2022-11-25 04:00 24.96 µg/m3 0.6 µg/m3 21.42 µg/m3 9.55 µg/m3 16.57 °C 82.02 % 1,017.12 mbar 2.25 m/s 209.52 Deg 3.83 µg/m3
2022-11-25 03:00 27.95 µg/m3 0.48 µg/m3 21.47 µg/m3 9.47 µg/m3 16.8 °C 80.42 % 1,016.91 mbar 1.97 m/s 216.1 Deg 1.73 µg/m3
2022-11-25 02:00 26.25 µg/m3 0.31 µg/m3 22.48 µg/m3 9.98 µg/m3 17.23 °C 77.96 % 1,016.64 mbar 1.88 m/s 230.69 Deg 2.8 µg/m3
2022-11-25 01:00 14.24 µg/m3 0.01 µg/m3 22.89 µg/m3 10.05 µg/m3 17.41 °C 77.07 % 1,016.59 mbar 2.08 m/s 263.65 Deg 0.98 µg/m3
2022-11-25 00:00 30.1 µg/m3 -0.5 µg/m3 26.23 µg/m3 11.98 µg/m3 17.41 °C 78.01 % 1,016.44 mbar 2.13 m/s 243.68 Deg 4.55 µg/m3
2022-11-24 23:00 27.88 µg/m3 -1.35 µg/m3 26.71 µg/m3 12.36 µg/m3 17.69 °C 78.1 % 1,016.13 mbar 2.58 m/s 247.83 Deg 3.92 µg/m3
2022-11-24 22:00 14.78 µg/m3 -0.5 µg/m3 25.48 µg/m3 11.86 µg/m3 17.86 °C 77.45 % 1,015.84 mbar 3.43 m/s 259.4 Deg 1.74 µg/m3
2022-11-24 21:00 29.71 µg/m3 -0.23 µg/m3 26.8 µg/m3 12.82 µg/m3 17.92 °C 77.47 % 1,015.42 mbar 3.53 m/s 254.64 Deg 8.04 µg/m3
2022-11-24 20:00 21.21 µg/m3 1.32 µg/m3 25.71 µg/m3 12.05 µg/m3 18.02 °C 77.21 % 1,014.83 mbar 3.48 m/s 258.94 Deg 2.48 µg/m3
2022-11-24 19:00 18.48 µg/m3 0.22 µg/m3 27.58 µg/m3 12.21 µg/m3 18.24 °C 75.96 % 1,014.38 mbar 3.55 m/s 264.14 Deg 1.69 µg/m3
2022-11-24 18:00 18.78 µg/m3 0.41 µg/m3 27.09 µg/m3 11.45 µg/m3 18.53 °C 72.94 % 1,013.95 mbar 4.36 m/s 263.56 Deg 2.78 µg/m3
2022-11-24 17:00 15.48 µg/m3 0.19 µg/m3 25.18 µg/m3 10.07 µg/m3 18.97 °C 70.09 % 1,013.38 mbar 4.44 m/s 258.86 Deg 1.85 µg/m3
2022-11-24 16:00 10.91 µg/m3 -0.19 µg/m3 21.36 µg/m3 8.55 µg/m3 19.4 °C 69.9 % 1,012.72 mbar 5.78 m/s 268.68 Deg 2.54 µg/m3
2022-11-24 15:00 9.39 µg/m3 0.17 µg/m3 24.13 µg/m3 8.08 µg/m3 19.6 °C 68.92 % 1,012.64 mbar 5.63 m/s 267.19 Deg 3.71 µg/m3
2022-11-24 14:00 8.71 µg/m3 -0.1 µg/m3 20.2 µg/m3 6.72 µg/m3 19.97 °C 65.16 % 1,012.67 mbar 5.87 m/s 268.69 Deg 4.64 µg/m3
2022-11-24 13:00 8.45 µg/m3 -0.22 µg/m3 17.97 µg/m3 6.36 µg/m3 19.75 °C 67.1 % 1,012.84 mbar 6.09 m/s 273.33 Deg 3.71 µg/m3
2022-11-24 12:00 10.84 µg/m3 -0.35 µg/m3 18.83 µg/m3 6.91 µg/m3 19.69 °C 73.53 % 1,013.17 mbar 6.12 m/s 269.62 Deg 6.2 µg/m3
2022-11-24 11:00 13.8 µg/m3 0.05 µg/m3 19.07 µg/m3 7.93 µg/m3 19.71 °C 77.06 % 1,013.27 mbar 5.04 m/s 264.68 Deg 7.85 µg/m3
2022-11-24 10:00 9.14 µg/m3 -0.3 µg/m3 17.77 µg/m3 7.67 µg/m3 19.33 °C 79.32 % 1,013.24 mbar 4.16 m/s 275.83 Deg 5.4 µg/m3
2022-11-24 09:00 17.92 µg/m3 0.39 µg/m3 29.38 µg/m3 13.05 µg/m3 18.95 °C 80.5 % 1,012.74 mbar 4.25 m/s 270.51 Deg 11.09 µg/m3
2022-11-24 08:00 18.24 µg/m3 0.41 µg/m3 34.44 µg/m3 17.06 µg/m3 18.69 °C 81.88 % 1,011.75 mbar 3.89 m/s 270.15 Deg 4.57 µg/m3
2022-11-24 07:00 15.36 µg/m3 0.03 µg/m3 41.84 µg/m3 22.29 µg/m3 18.89 °C 84.18 % 1,010.86 mbar 4.17 m/s 272.21 Deg 4.58 µg/m3
2022-11-24 06:00 7.87 µg/m3 -0.78 µg/m3 42.81 µg/m3 23.09 µg/m3 19.11 °C 84.38 % 1,009.86 mbar 4.45 m/s 257.99 Deg 1.58 µg/m3
2022-11-24 05:00 8.58 µg/m3 -0.21 µg/m3 39.83 µg/m3 21.98 µg/m3 18.98 °C 87.51 % 1,009.43 mbar 4.27 m/s 257.86 Deg 2.23 µg/m3
2022-11-24 04:00 8.84 µg/m3 0.13 µg/m3 21.78 µg/m3 11.52 µg/m3 18.66 °C 89.08 % 1,009.32 mbar 4.19 m/s 261.26 Deg 2.72 µg/m3
2022-11-24 03:00 6.72 µg/m3 -0.31 µg/m3 20.16 µg/m3 10.04 µg/m3 18.7 °C 86.99 % 1,009.25 mbar 4.18 m/s 267.43 Deg 1.03 µg/m3
2022-11-24 02:00 5.64 µg/m3 -0.79 µg/m3 17.46 µg/m3 8.65 µg/m3 18.55 °C 90.92 % 1,009.09 mbar 4.51 m/s 260.42 Deg 2.29 µg/m3
2022-11-24 01:00 9.66 µg/m3 -1.24 µg/m3 15.06 µg/m3 7.14 µg/m3 18.29 °C 89.64 % 1,009.17 mbar 4.94 m/s 237.83 Deg 3.62 µg/m3
2022-11-24 00:00 16.5 µg/m3 -1.26 µg/m3 12.38 µg/m3 5.46 µg/m3 18.25 °C 89.49 % 1,009.49 mbar 4.04 m/s 238 Deg 6.76 µg/m3
2022-11-23 23:00 10.72 µg/m3 -0.22 µg/m3 9.73 µg/m3 3.78 µg/m3 17.67 °C 89.73 % 1,009.52 mbar 4.68 m/s 238.79 Deg 3.34 µg/m3
2022-11-23 22:00 5.4 µg/m3 -0.5 µg/m3 8.21 µg/m3 2.91 µg/m3 17.08 °C 90.77 % 1,009.49 mbar 7.18 m/s 229.71 Deg 1.84 µg/m3
2022-11-23 21:00 9.1 µg/m3 -0.06 µg/m3 10.99 µg/m3 4.66 µg/m3 18.68 °C 81.37 % 1,009.21 mbar 7.5 m/s 237.05 Deg 2.36 µg/m3
2022-11-23 20:00 19.54 µg/m3 -0.09 µg/m3 13.29 µg/m3 5.54 µg/m3 19.27 °C 72.22 % 1,008.81 mbar 6.12 m/s 257.93 Deg 5.76 µg/m3
2022-11-23 19:00 22.96 µg/m3 0.02 µg/m3 14.92 µg/m3 6.45 µg/m3 19.14 °C 70.27 % 1,008.64 mbar 5.8 m/s 235.28 Deg 6.34 µg/m3
2022-11-23 18:00 20.45 µg/m3 -0.08 µg/m3 14.18 µg/m3 6.08 µg/m3 18.78 °C 70.72 % 1,008.41 mbar 6.17 m/s 240.33 Deg 4.22 µg/m3
2022-11-23 17:00 17.76 µg/m3 -0.31 µg/m3 13.38 µg/m3 5.54 µg/m3 18.56 °C 71.85 % 1,008.00 mbar 6.64 m/s 256.76 Deg 4.01 µg/m3
2022-11-23 16:00 14.94 µg/m3 -0.01 µg/m3 12.47 µg/m3 5.03 µg/m3 18.96 °C 68.55 % 1,007.58 mbar 7.33 m/s 232.54 Deg 5.19 µg/m3
2022-11-23 15:00 9.69 µg/m3 0.27 µg/m3 12.04 µg/m3 4.78 µg/m3 19.2 °C 65.75 % 1,007.23 mbar 8.54 m/s 233.88 Deg 4.31 µg/m3
2022-11-23 14:00 11.13 µg/m3 -1.18 µg/m3 13.39 µg/m3 5.5 µg/m3 19.19 °C 65.41 % 1,007.42 mbar 8.82 m/s 229.41 Deg 9.16 µg/m3
2022-11-23 13:00 8.42 µg/m3 0.58 µg/m3 12.37 µg/m3 4.91 µg/m3 19.17 °C 62.28 % 1,007.61 mbar 8.51 m/s 231.97 Deg 4.07 µg/m3
2022-11-23 12:00 10.39 µg/m3 0.18 µg/m3 12.69 µg/m3 4.76 µg/m3 18.43 °C 66.33 % 1,008.08 mbar 8.37 m/s 253.31 Deg 6.44 µg/m3
2022-11-23 11:00 14.57 µg/m3 7.45 µg/m3 13.37 µg/m3 5.19 µg/m3 18.75 °C 61.96 % 1,008.39 mbar 8.04 m/s 243.9 Deg 11.03 µg/m3
2022-11-23 10:00 18.56 µg/m3 -13.55 µg/m3 15.12 µg/m3 5.78 µg/m3 18.47 °C 59.01 % 1,008.71 mbar 6.82 m/s 234.63 Deg 15.18 µg/m3
2022-11-23 09:00 28.18 µg/m3 0.46 µg/m3 16.69 µg/m3 6.3 µg/m3 17.74 °C 60.57 % 1,008.44 mbar 6.02 m/s 251.2 Deg 11.94 µg/m3
2022-11-23 08:00 35.75 µg/m3 1.25 µg/m3 17.18 µg/m3 7.1 µg/m3 17.28 °C 62.04 % 1,008.04 mbar 5.54 m/s 248.92 Deg 24.79 µg/m3
2022-11-23 07:00 17.51 µg/m3 0.67 µg/m3 15.59 µg/m3 6.48 µg/m3 16.95 °C 61.53 % 1,007.77 mbar 4.99 m/s 240.77 Deg 3.91 µg/m3
2022-11-23 06:00 19.27 µg/m3 1.14 µg/m3 15.87 µg/m3 6.31 µg/m3 16.75 °C 61.47 % 1,007.86 mbar 4.16 m/s 243.56 Deg 4.25 µg/m3
2022-11-23 05:00 16.11 µg/m3 0.76 µg/m3 15.95 µg/m3 6.45 µg/m3 16.66 °C 62.97 % 1,008.07 mbar 4.35 m/s 250.21 Deg 2.89 µg/m3
2022-11-23 04:00 12.07 µg/m3 0.01 µg/m3 15.48 µg/m3 6.34 µg/m3 16.3 °C 66.54 % 1,008.27 mbar 4.37 m/s 232.09 Deg 1.66 µg/m3
2022-11-23 03:00 12.73 µg/m3 0.25 µg/m3 15.79 µg/m3 6.43 µg/m3 15.73 °C 71.6 % 1,008.58 mbar 4.45 m/s 244.67 Deg 1.58 µg/m3
2022-11-23 02:00 16.81 µg/m3 0.33 µg/m3 16.1 µg/m3 6.79 µg/m3 15.19 °C 75.75 % 1,009.01 mbar 3.81 m/s 210.6 Deg 5.69 µg/m3
2022-11-23 01:00 5.72 µg/m3 0.08 µg/m3 12.38 µg/m3 4.99 µg/m3 15.05 °C 72.34 % 1,009.49 mbar 6.58 m/s 247.02 Deg 1.82 µg/m3
2022-11-23 00:00 7.52 µg/m3 0.39 µg/m3 12.46 µg/m3 5.13 µg/m3 17.35 °C 58.73 % 1,009.47 mbar 6.94 m/s 234.11 Deg 1.41 µg/m3
2022-11-22 23:00 11.74 µg/m3 -0.06 µg/m3 12.57 µg/m3 5.3 µg/m3 17.35 °C 61.49 % 1,009.44 mbar 6.32 m/s 234.31 Deg 2.14 µg/m3
2022-11-22 22:00 11.65 µg/m3 0.45 µg/m3 13.27 µg/m3 5.52 µg/m3 17.64 °C 58.39 % 1,009.46 mbar 6.24 m/s 235.48 Deg 4.5 µg/m3
2022-11-22 21:00 6.47 µg/m3 -0.41 µg/m3 12.32 µg/m3 5 µg/m3 17.75 °C 56.02 % 1,009.03 mbar 7.33 m/s 231.58 Deg 1.1 µg/m3
2022-11-22 20:00 10.93 µg/m3 -1.49 µg/m3 14.31 µg/m3 5.65 µg/m3 17.58 °C 56.72 % 1,008.81 mbar 5.83 m/s 244.18 Deg 1.55 µg/m3
2022-11-22 19:00 12.35 µg/m3 -0.23 µg/m3 15.35 µg/m3 6.08 µg/m3 17.59 °C 57.48 % 1,008.56 mbar 5.96 m/s 255.38 Deg 1.27 µg/m3
2022-11-22 18:00 13.3 µg/m3 -0.43 µg/m3 15.33 µg/m3 6.25 µg/m3 17.63 °C 58.59 % 1,008.29 mbar 6.57 m/s 255.5 Deg 2.12 µg/m3
2022-11-22 17:00 13.47 µg/m3 -0.03 µg/m3 15.72 µg/m3 6.18 µg/m3 17.41 °C 63.31 % 1,007.65 mbar 6.46 m/s 251.18 Deg 2.07 µg/m3
2022-11-22 16:00 10.25 µg/m3 -0.91 µg/m3 16.81 µg/m3 6.4 µg/m3 18.38 °C 59.91 % 1,006.95 mbar 8.41 m/s 250.95 Deg 2.54 µg/m3
2022-11-22 15:00 9.77 µg/m3 -0.05 µg/m3 13.7 µg/m3 5.18 µg/m3 19.22 °C 58.1 % 1,006.17 mbar 9.8 m/s 234.73 Deg 1.87 µg/m3
2022-11-22 14:00 14.75 µg/m3 0.48 µg/m3 22.49 µg/m3 8.84 µg/m3 18.37 °C 71.82 % 1,006.47 mbar 8.46 m/s 235.13 Deg 4.43 µg/m3
2022-11-22 13:00 11.11 µg/m3 0.06 µg/m3 20.54 µg/m3 6.73 µg/m3 20.07 °C 60 % 1,006.19 mbar 13.45 m/s 225.91 Deg 3.6 µg/m3
2022-11-22 12:00 12.13 µg/m3 0.34 µg/m3 25.38 µg/m3 7.34 µg/m3 20.27 °C 63.04 % 1,006.57 mbar 15.13 m/s 213.12 Deg 5.75 µg/m3
2022-11-22 11:00 16.1 µg/m3 -0.37 µg/m3 24.49 µg/m3 7.01 µg/m3 20.03 °C 62.86 % 1,006.73 mbar 15.09 m/s 207.45 Deg 6.5 µg/m3
2022-11-22 10:00 25.76 µg/m3 0.52 µg/m3 23.03 µg/m3 6.73 µg/m3 19.64 °C 64.13 % 1,006.39 mbar 14.57 m/s 208.36 Deg 12.98 µg/m3
2022-11-22 09:00 34.83 µg/m3 1.04 µg/m3 20.76 µg/m3 6.81 µg/m3 19.28 °C 64.51 % 1,006.96 mbar 12.14 m/s 204.72 Deg 18.21 µg/m3
2022-11-22 08:00 42.79 µg/m3 0.94 µg/m3 18.27 µg/m3 6.88 µg/m3 18.72 °C 63.77 % 1,007.50 mbar 9.3 m/s 208.77 Deg 22.6 µg/m3
2022-11-22 07:00 46.78 µg/m3 1 µg/m3 18.68 µg/m3 7.73 µg/m3 18.54 °C 61.61 % 1,008.48 mbar 8.41 m/s 206.46 Deg 22.96 µg/m3
2022-11-22 06:00 36.2 µg/m3 0.9 µg/m3 18.34 µg/m3 7.4 µg/m3 18.51 °C 57.41 % 1,008.98 mbar 8.34 m/s 199.57 Deg 15.24 µg/m3
2022-11-22 05:00 21.62 µg/m3 0.71 µg/m3 15.02 µg/m3 5.82 µg/m3 18.73 °C 53.38 % 1,009.61 mbar 8.89 m/s 201.47 Deg 4 µg/m3
2022-11-22 04:00 20.25 µg/m3 0.67 µg/m3 13.8 µg/m3 5.27 µg/m3 19.08 °C 54.49 % 1,010.67 mbar 9.72 m/s 206.54 Deg 2.83 µg/m3
2022-11-22 03:00 15.98 µg/m3 0.43 µg/m3 15.9 µg/m3 5.79 µg/m3 19.33 °C 57.08 % 1,011.56 mbar 9.1 m/s 212.58 Deg 2.07 µg/m3
2022-11-22 02:00 27.82 µg/m3 1.18 µg/m3 15.68 µg/m3 5.65 µg/m3 19.05 °C 56.71 % 1,012.17 mbar 6.64 m/s 203.88 Deg 4.11 µg/m3
2022-11-22 01:00 35.15 µg/m3 1.4 µg/m3 10.84 µg/m3 3.81 µg/m3 18.6 °C 59.91 % 1,013.23 mbar 5.43 m/s 207.49 Deg 5.94 µg/m3
2022-11-22 00:00 56.57 µg/m3 1.94 µg/m3 13.46 µg/m3 5.06 µg/m3 18.09 °C 64.06 % 1,013.90 mbar 4.13 m/s 207.9 Deg 31.89 µg/m3
2022-11-21 23:00 45.42 µg/m3 1.39 µg/m3 12.87 µg/m3 4.53 µg/m3 17.87 °C 67.33 % 1,014.33 mbar 3.72 m/s 204.44 Deg 9.07 µg/m3
2022-11-21 22:00 41.15 µg/m3 1.39 µg/m3 16.05 µg/m3 7.25 µg/m3 17.99 °C 66.72 % 1,014.56 mbar 4.4 m/s 206.27 Deg 13.07 µg/m3
2022-11-21 21:00 47.02 µg/m3 0.56 µg/m3 16.43 µg/m3 6.03 µg/m3 17.72 °C 69.48 % 1,014.42 mbar 3.64 m/s 202.78 Deg 8.18 µg/m3
2022-11-21 20:00 43.92 µg/m3 0.22 µg/m3 19.75 µg/m3 6.66 µg/m3 17.9 °C 68.02 % 1,014.51 mbar 3.49 m/s 207.9 Deg 4.73 µg/m3
2022-11-21 19:00 61.39 µg/m3 1.29 µg/m3 17.52 µg/m3 6.71 µg/m3 18.06 °C 66.74 % 1,014.77 mbar 4.18 m/s 221.89 Deg 44.87 µg/m3
2022-11-21 18:00 48.49 µg/m3 1.08 µg/m3 14.86 µg/m3 5.88 µg/m3 18.16 °C 67.03 % 1,014.53 mbar 4.3 m/s 245.95 Deg 20.45 µg/m3
2022-11-21 17:00 24.08 µg/m3 -0.04 µg/m3 14.77 µg/m3 5.6 µg/m3 18.29 °C 67.77 % 1,014.36 mbar 4.49 m/s 261.58 Deg 4.94 µg/m3
2022-11-21 16:00 17.81 µg/m3 0.48 µg/m3 14.85 µg/m3 6.02 µg/m3 17.71 °C 74.17 % 1,014.39 mbar 4.42 m/s 258.99 Deg 4.25 µg/m3
2022-11-21 15:00 16.62 µg/m3 0.9 µg/m3 14.96 µg/m3 6.1 µg/m3 17.1 °C 78.1 % 1,014.56 mbar 3.88 m/s 267.37 Deg 6.4 µg/m3
2022-11-21 14:00 16.42 µg/m3 0.68 µg/m3 16.14 µg/m3 5.91 µg/m3 18.08 °C 70.82 % 1,014.58 mbar 5.21 m/s 262.55 Deg 5.95 µg/m3
2022-11-21 13:00 12.06 µg/m3 0.88 µg/m3 15.77 µg/m3 6.61 µg/m3 16.54 °C 80.84 % 1,015.02 mbar 3.57 m/s 275.18 Deg 3.46 µg/m3
2022-11-21 12:00 19.62 µg/m3 0.81 µg/m3 15.39 µg/m3 6.37 µg/m3 16.15 °C 81.4 % 1,015.78 mbar 3.36 m/s 272.1 Deg 8.63 µg/m3
2022-11-21 11:00 18.94 µg/m3 0.9 µg/m3 18.51 µg/m3 6.57 µg/m3 17.11 °C 70.43 % 1,015.78 mbar 4.98 m/s 252.07 Deg 8.61 µg/m3
2022-11-21 10:00 11.61 µg/m3 1.03 µg/m3 22.34 µg/m3 6.54 µg/m3 18.35 °C 54.33 % 1,015.39 mbar 5.1 m/s 269.2 Deg 4.47 µg/m3
2022-11-21 09:00 16.7 µg/m3 1.05 µg/m3 21.67 µg/m3 7.06 µg/m3 17.57 °C 55.44 % 1,015.09 mbar 4.02 m/s 260.27 Deg 3.93 µg/m3
2022-11-21 08:00 18.75 µg/m3 0.63 µg/m3 20.29 µg/m3 7.53 µg/m3 16.94 °C 60.95 % 1,014.56 mbar 4.16 m/s 260.57 Deg 3.65 µg/m3
2022-11-21 07:00 8.86 µg/m3 0.24 µg/m3 17.25 µg/m3 7.17 µg/m3 16.45 °C 72.35 % 1,013.94 mbar 4.73 m/s 268.53 Deg 2.32 µg/m3
2022-11-21 06:00 9.33 µg/m3 0.09 µg/m3 15.68 µg/m3 6.43 µg/m3 15.79 °C 77.37 % 1,013.42 mbar 3.03 m/s 267.11 Deg 2.64 µg/m3
2022-11-21 05:00 5.22 µg/m3 -0.28 µg/m3 16.1 µg/m3 5.65 µg/m3 16.63 °C 68.2 % 1,012.88 mbar 3.22 m/s 254.73 Deg 2.6 µg/m3
2022-11-21 04:00 1.8 µg/m3 -1.05 µg/m3 14.39 µg/m3 5.45 µg/m3 16.55 °C 69.34 % 1,012.57 mbar 3.91 m/s 253.81 Deg 1.24 µg/m3
2022-11-21 03:00 2.36 µg/m3 -1.53 µg/m3 14.21 µg/m3 5.53 µg/m3 16.88 °C 69.37 % 1,012.42 mbar 4.51 m/s 257.48 Deg 0.35 µg/m3
2022-11-21 02:00 0.6 µg/m3 -1.7 µg/m3 13.12 µg/m3 4.94 µg/m3 16.76 °C 66.19 % 1,012.55 mbar 4.71 m/s 254.63 Deg 0.94 µg/m3
2022-11-21 01:00 0.38 µg/m3 -1.12 µg/m3 16.37 µg/m3 6.62 µg/m3 16.74 °C 68.91 % 1,012.70 mbar 4.5 m/s 260.7 Deg 0.44 µg/m3
2022-11-21 00:00 -0.24 µg/m3 -0.31 µg/m3 14.83 µg/m3 6.3 µg/m3 17.77 °C 64.41 % 1,012.48 mbar 5.95 m/s 250.51 Deg 0.52 µg/m3
2022-11-20 23:00 1.65 µg/m3 -0.59 µg/m3 17.53 µg/m3 6.8 µg/m3 18.02 °C 60.31 % 1,012.16 mbar 5.13 m/s 256.84 Deg 0.44 µg/m3
2022-11-20 22:00 1.58 µg/m3 -0.47 µg/m3 17.34 µg/m3 6.63 µg/m3 18.18 °C 59.23 % 1,011.63 mbar 5.18 m/s 253.86 Deg 0.63 µg/m3
2022-11-20 21:00 1.67 µg/m3 -0.64 µg/m3 14.86 µg/m3 5.86 µg/m3 17.96 °C 63.15 % 1,010.86 mbar 5.44 m/s 257.34 Deg 0.88 µg/m3
2022-11-20 20:00 2.38 µg/m3 -1.39 µg/m3 14.52 µg/m3 5.48 µg/m3 17.78 °C 64.37 % 1,010.25 mbar 5.48 m/s 257.97 Deg 0.86 µg/m3
2022-11-20 19:00 5.4 µg/m3 -1.14 µg/m3 13.36 µg/m3 5.08 µg/m3 17.59 °C 65.02 % 1,009.52 mbar 5.09 m/s 253.08 Deg 1.13 µg/m3
2022-11-20 18:00 5.33 µg/m3 -0.4 µg/m3 12.87 µg/m3 4.76 µg/m3 16.85 °C 66.91 % 1,008.76 mbar 4.83 m/s 256.01 Deg 0.68 µg/m3
2022-11-20 17:00 3.02 µg/m3 -0.73 µg/m3 10.06 µg/m3 3.6 µg/m3 16.78 °C 67.28 % 1,008.16 mbar 6.03 m/s 246.19 Deg 0.7 µg/m3
2022-11-20 16:00 3.44 µg/m3 -0.76 µg/m3 10.08 µg/m3 3.68 µg/m3 16.79 °C 71.94 % 1,007.44 mbar 6.33 m/s 227.36 Deg 1.5 µg/m3
2022-11-20 15:00 4.25 µg/m3 -0.64 µg/m3 11.75 µg/m3 4.26 µg/m3 17.23 °C 68.82 % 1,007.01 mbar 6.65 m/s 227.86 Deg 4.66 µg/m3
2022-11-20 14:00 28.18 µg/m3 -3.59 µg/m3 13.18 µg/m3 5.21 µg/m3 16.22 °C 76.08 % 1,007.28 mbar 5.31 m/s 228.18 Deg 20.71 µg/m3
2022-11-20 13:00 20.78 µg/m3 -0.56 µg/m3 13.68 µg/m3 5.06 µg/m3 15.94 °C 74.51 % 1,007.43 mbar 5.33 m/s 239.92 Deg 11.79 µg/m3
2022-11-20 12:00 8.32 µg/m3 -2.95 µg/m3 12.56 µg/m3 5.09 µg/m3 11.81 °C 97.5 % 1,008.07 mbar 7.59 m/s 247.15 Deg 2.06 µg/m3
2022-11-20 11:00 4.9 µg/m3 -1.18 µg/m3 17.47 µg/m3 6.04 µg/m3 17.12 °C 75.13 % 1,007.16 mbar 4.87 m/s 275.8 Deg 2.11 µg/m3
2022-11-20 10:00 6.28 µg/m3 -1.31 µg/m3 33.35 µg/m3 10.54 µg/m3 18.32 °C 73.06 % 1,006.69 mbar 6.47 m/s 260.65 Deg 2.37 µg/m3
2022-11-20 09:00 13.03 µg/m3 -2.41 µg/m3 70.97 µg/m3 21.92 µg/m3 20.34 °C 58.67 % 1,005.39 mbar 9.96 m/s 207.56 Deg 4.16 µg/m3
2022-11-20 08:00 32.42 µg/m3 -1.81 µg/m3 153.1 µg/m3 51.66 µg/m3 19.73 °C 67.52 % 1,005.26 mbar 5.93 m/s 185.83 Deg 24.62 µg/m3
2022-11-20 07:00 53.59 µg/m3 0.05 µg/m3 25.78 µg/m3 11.55 µg/m3 18.61 °C 80.79 % 1,005.36 mbar 0.44 m/s 207.62 Deg 23.38 µg/m3
2022-11-20 06:00 40.22 µg/m3 -0.26 µg/m3 21.14 µg/m3 8.39 µg/m3 18.82 °C 79.26 % 1,006.08 mbar 0.74 m/s 221.83 Deg 8.93 µg/m3
2022-11-20 05:00 20.26 µg/m3 -0.65 µg/m3 20.96 µg/m3 7.67 µg/m3 18.96 °C 77.16 % 1,006.62 mbar 1.73 m/s 264.15 Deg 2.27 µg/m3
2022-11-20 04:00 24.05 µg/m3 -0.55 µg/m3 20.31 µg/m3 8.76 µg/m3 19.18 °C 79.17 % 1,006.74 mbar 1.61 m/s 239.43 Deg 2.73 µg/m3
2022-11-20 03:00 14.19 µg/m3 -0.58 µg/m3 25.21 µg/m3 8.79 µg/m3 19.44 °C 76.94 % 1,007.14 mbar 1.13 m/s 280.57 Deg 0.86 µg/m3
2022-11-20 02:00 2.62 µg/m3 -0.62 µg/m3 30.28 µg/m3 8.35 µg/m3 19.69 °C 76.24 % 1,007.72 mbar 1.02 m/s 292.53 Deg 0.84 µg/m3
2022-11-20 01:00 1.67 µg/m3 -0.53 µg/m3 28.51 µg/m3 8.07 µg/m3 19.89 °C 76.17 % 1,007.83 mbar 1.15 m/s 312.92 Deg 0.69 µg/m3
2022-11-20 00:00 4.3 µg/m3 -0.44 µg/m3 21.51 µg/m3 9.02 µg/m3 20.39 °C 79.57 % 1,008.17 mbar 1.52 m/s 305.1 Deg 0.67 µg/m3
2022-11-19 23:00 13.54 µg/m3 -0.52 µg/m3 119.6 µg/m3 32.16 µg/m3 21.68 °C 72.4 % 1,008.14 mbar 3.03 m/s 245.39 Deg 2.64 µg/m3
2022-11-19 22:00 10.4 µg/m3 -0.54 µg/m3 55.91 µg/m3 19.9 µg/m3 22.49 °C 72.17 % 1,007.84 mbar 5.95 m/s 223.12 Deg 3.56 µg/m3
2022-11-19 21:00 18.88 µg/m3 -0.65 µg/m3 98.51 µg/m3 34.5 µg/m3 22.97 °C 72.48 % 1,007.31 mbar 6.18 m/s 195.45 Deg 4.27 µg/m3
2022-11-19 20:00 19.92 µg/m3 -0.48 µg/m3 95.33 µg/m3 31.89 µg/m3 23 °C 71.11 % 1,007.03 mbar 5.96 m/s 196.28 Deg 5.49 µg/m3
2022-11-19 19:00 37.66 µg/m3 -0.28 µg/m3 45.13 µg/m3 18.75 µg/m3 22.82 °C 77.13 % 1,006.66 mbar 5.02 m/s 188.85 Deg 21.22 µg/m3
2022-11-19 18:00 50.06 µg/m3 0.17 µg/m3 43.8 µg/m3 16.33 µg/m3 22.85 °C 76.44 % 1,006.51 mbar 4.06 m/s 187.67 Deg 25.45 µg/m3
2022-11-19 17:00 41.05 µg/m3 -0.15 µg/m3 35.4 µg/m3 13.87 µg/m3 22.81 °C 77.82 % 1,006.35 mbar 4.05 m/s 183.13 Deg 27.91 µg/m3
2022-11-19 16:00 32.88 µg/m3 -0.21 µg/m3 36.5 µg/m3 12.15 µg/m3 23.37 °C 76.41 % 1,006.41 mbar 4.01 m/s 190.03 Deg 35.99 µg/m3
2022-11-19 15:00 22.25 µg/m3 -0.75 µg/m3 27.61 µg/m3 9.43 µg/m3 23.5 °C 75.26 % 1,006.78 mbar 5.05 m/s 193.65 Deg 16.39 µg/m3
2022-11-19 14:00 14.45 µg/m3 -0.91 µg/m3 22 µg/m3 7.56 µg/m3 23.44 °C 73.84 % 1,006.95 mbar 6.55 m/s 212.73 Deg 6.47 µg/m3
2022-11-19 13:00 11 µg/m3 -0.86 µg/m3 18.27 µg/m3 6.61 µg/m3 23.42 °C 75.22 % 1,007.15 mbar 7.35 m/s 201.9 Deg 5.58 µg/m3
2022-11-19 12:00 21.1 µg/m3 -0.02 µg/m3 26.27 µg/m3 10.32 µg/m3 23.45 °C 75.44 % 1,007.58 mbar 6.8 m/s 211.2 Deg 7.84 µg/m3
2022-11-19 11:00 18.26 µg/m3 -0.3 µg/m3 26.71 µg/m3 12.32 µg/m3 23.13 °C 81.84 % 1,008.10 mbar 6.35 m/s 196.27 Deg 9.27 µg/m3

It is to be noted that the data is provisional and subject to quality assurance procedures. For validated data kindly refer your request to contact.air@era.org.mt